Time;durP1;ratioP1;P1;durP2;ratioP2;P2;SDS_P1;SDS_P2;PMS_P1;PMS_P2;Temp;Humidity;BMP_temperature;BMP_pressure;BME280_temperature;BME280_humidity;BME280_pressure;Samples;Min_cycle;Max_cycle;Signal;HPM_P1;HPM_P2
2023/08/17 00:00:13;;;;;;;0.03;0.03;;;17.50;99.90;;;;;;5032568;28;20029;-65
2023/08/17 00:02:40;;;;;;;0.15;0.15;;;17.50;99.90;;;;;;5028075;28;20017;-65
2023/08/17 00:05:09;;;;;;;;;;;17.50;99.90;;;;;;5027725;28;20403;-66
2023/08/17 00:07:35;;;;;;;0.10;0.10;;;17.50;99.90;;;;;;5033135;28;19909;-66
2023/08/17 00:10:01;;;;;;;0.17;0.17;;;17.50;99.90;;;;;;5025194;28;20644;-74
2023/08/17 00:12:27;;;;;;;0.10;0.10;;;17.50;99.90;;;;;;5019452;28;20033;-66
2023/08/17 00:14:53;;;;;;;0.20;0.20;;;17.40;99.90;;;;;;5034381;28;20274;-65
2023/08/17 00:17:20;;;;;;;0.15;0.15;;;17.40;99.90;;;;;;5019514;28;20340;-66
2023/08/17 00:19:46;;;;;;;0.03;0.03;;;17.40;99.90;;;;;;5025752;28;20647;-66
2023/08/17 00:22:11;;;;;;;0.03;0.03;;;17.40;99.90;;;;;;5031424;28;20112;-66
2023/08/17 00:24:37;;;;;;;0.10;0.10;;;17.30;99.90;;;;;;5028822;28;20266;-66
2023/08/17 00:27:03;;;;;;;0.32;0.32;;;17.40;99.90;;;;;;5030779;28;20104;-67
2023/08/17 00:29:30;;;;;;;0.00;0.00;;;17.40;99.90;;;;;;5033851;28;20041;-66
2023/08/17 00:31:56;;;;;;;0.65;0.47;;;17.30;99.90;;;;;;5025513;28;20029;-67
2023/08/17 00:34:21;;;;;;;2.80;1.30;;;17.30;99.90;;;;;;5021353;28;20163;-67
2023/08/17 00:36:47;;;;;;;0.10;0.10;;;17.30;99.90;;;;;;5014303;28;20029;-66
2023/08/17 00:39:14;;;;;;;0.30;0.30;;;17.30;99.90;;;;;;5033861;28;20022;-66
2023/08/17 00:41:40;;;;;;;0.70;0.47;;;17.30;99.90;;;;;;5024202;28;20124;-66
2023/08/17 00:44:06;;;;;;;0.03;0.03;;;17.20;99.90;;;;;;5026945;28;20317;-80
2023/08/17 00:46:32;;;;;;;0.53;0.53;;;17.20;99.90;;;;;;5024300;28;20018;-66
2023/08/17 00:48:58;;;;;;;0.10;0.10;;;17.10;99.90;;;;;;5025934;28;20038;-66
2023/08/17 00:51:24;;;;;;;0.00;0.00;;;17.10;99.90;;;;;;5030105;28;20083;-66
2023/08/17 00:53:57;;;;;;;0.20;0.20;;;17.10;99.90;;;;;;5037182;28;20613;-66
2023/08/17 00:56:23;;;;;;;0.43;0.43;;;17.10;99.90;;;;;;5027915;28;20036;-66
2023/08/17 00:58:49;;;;;;;0.10;0.10;;;17.00;99.90;;;;;;5025729;28;20104;-65
2023/08/17 01:01:15;;;;;;;0.20;0.20;;;16.90;99.90;;;;;;5023920;28;20526;-67
2023/08/17 01:03:41;;;;;;;0.10;0.10;;;16.90;99.90;;;;;;5036428;28;20029;-66
2023/08/17 01:06:08;;;;;;;0.15;0.15;;;16.90;99.90;;;;;;5029560;28;20360;-66
2023/08/17 01:08:34;;;;;;;0.20;0.20;;;16.90;99.90;;;;;;5032283;28;20041;-65
2023/08/17 01:11:24;;;;;;;0.15;0.15;;;16.80;99.90;;;;;;5032371;28;20025;-78
2023/08/17 01:14:19;;;;;;;0.10;0.10;;;16.80;99.90;;;;;;5040539;28;20025;-66
2023/08/17 01:16:56;;;;;;;0.10;0.10;;;16.70;99.90;;;;;;5043559;28;20386;-65
2023/08/17 01:19:27;;;;;;;0.10;0.10;;;16.70;99.90;;;;;;5029134;28;20026;-65
2023/08/17 01:22:00;;;;;;;0.10;0.10;;;16.70;99.90;;;;;;5027877;28;20029;-66
2023/08/17 01:24:26;;;;;;;0.15;0.15;;;16.70;99.90;;;;;;5025156;28;20033;-65
2023/08/17 01:26:52;;;;;;;1.02;0.77;;;16.70;99.90;;;;;;5018495;28;20044;-66
2023/08/17 01:29:18;;;;;;;0.50;0.50;;;16.60;99.90;;;;;;5026477;28;20431;-66
2023/08/17 01:32:06;;;;;;;1.00;0.93;;;16.60;99.90;;;;;;5039179;28;20021;-65
2023/08/17 01:34:39;;;;;;;0.88;0.68;;;16.60;99.90;;;;;;5030124;28;20033;-67
2023/08/17 01:37:09;;;;;;;0.15;0.15;;;16.60;99.90;;;;;;5030192;28;20033;-65
2023/08/17 01:39:39;;;;;;;0.00;0.00;;;16.50;99.90;;;;;;5026639;28;20146;-66
2023/08/17 01:42:06;;;;;;;0.17;0.17;;;16.50;99.90;;;;;;5031435;28;20041;-67
2023/08/17 01:44:32;;;;;;;0.20;0.20;;;16.60;99.90;;;;;;5020051;28;20443;-66
2023/08/17 01:46:59;;;;;;;0.10;0.10;;;16.50;99.90;;;;;;5033434;28;20063;-66
2023/08/17 01:49:25;;;;;;;0.33;0.33;;;16.50;99.90;;;;;;5036584;28;20474;-65
2023/08/17 01:51:51;;;;;;;0.17;0.17;;;16.50;99.90;;;;;;5025192;28;20075;-65
2023/08/17 01:54:16;;;;;;;0.10;0.10;;;16.50;99.90;;;;;;5035429;28;20025;-66
2023/08/17 01:56:42;;;;;;;0.20;0.20;;;16.50;99.90;;;;;;5032300;28;20372;-65
2023/08/17 01:59:08;;;;;;;0.00;0.00;;;16.50;99.90;;;;;;5037964;28;20048;-66
2023/08/17 02:01:33;;;;;;;5.70;1.37;;;16.50;99.90;;;;;;5035121;28;20025;-66
2023/08/17 02:04:02;;;;;;;0.33;0.30;;;16.50;99.90;;;;;;5035259;28;20032;-66
2023/08/17 02:06:28;;;;;;;0.10;0.10;;;16.50;99.90;;;;;;5028236;28;20018;-66
2023/08/17 02:08:54;;;;;;;1.75;0.52;;;16.50;99.90;;;;;;5034288;28;20061;-65
2023/08/17 02:11:20;;;;;;;0.10;0.10;;;16.40;99.90;;;;;;5023459;28;20044;-67
2023/08/17 02:13:46;;;;;;;0.10;0.10;;;16.40;99.90;;;;;;5028683;28;20080;-66
2023/08/17 02:16:11;;;;;;;3.63;1.73;;;16.40;99.90;;;;;;5042262;28;20403;-68
2023/08/17 02:18:37;;;;;;;1.03;0.47;;;16.30;99.90;;;;;;5023304;28;20056;-67
2023/08/17 02:21:03;;;;;;;0.17;0.17;;;16.40;99.90;;;;;;5030963;28;20028;-66
2023/08/17 02:23:29;;;;;;;0.57;0.57;;;16.30;99.90;;;;;;5035585;28;20080;-66
2023/08/17 02:25:54;;;;;;;0.00;0.00;;;16.30;99.90;;;;;;5031945;28;21225;-66
2023/08/17 02:28:20;;;;;;;0.10;0.10;;;16.20;99.90;;;;;;5028487;28;20068;-66
2023/08/17 02:30:47;;;;;;;0.07;0.07;;;16.20;99.90;;;;;;5027041;28;20025;-66
2023/08/17 02:33:13;;;;;;;0.40;0.40;;;16.20;99.90;;;;;;5027486;28;20028;-65
2023/08/17 02:35:38;;;;;;;0.40;0.40;;;16.10;99.90;;;;;;5034806;28;20029;-67
2023/08/17 02:38:04;;;;;;;0.47;0.47;;;16.10;99.90;;;;;;5032279;28;20036;-66
2023/08/17 02:40:30;;;;;;;0.10;0.10;;;16.10;99.90;;;;;;5019243;28;20921;-66
2023/08/17 02:42:55;;;;;;;6.90;1.93;;;16.10;99.90;;;;;;5034274;28;20077;-80
2023/08/17 02:45:21;;;;;;;0.10;0.10;;;16.00;99.90;;;;;;5043851;28;20033;-65
2023/08/17 02:47:47;;;;;;;0.30;0.20;;;16.10;99.90;;;;;;5029368;28;20030;-66
2023/08/17 02:50:13;;;;;;;0.27;0.27;;;16.00;99.90;;;;;;5031210;28;20360;-66
2023/08/17 02:52:39;;;;;;;0.40;0.20;;;16.00;99.90;;;;;;5023104;28;20027;-65
2023/08/17 02:55:05;;;;;;;0.30;0.30;;;16.00;99.90;;;;;;5027100;28;20416;-66
2023/08/17 02:57:31;;;;;;;0.70;0.35;;;16.00;99.90;;;;;;5035065;28;20025;-67
2023/08/17 02:59:56;;;;;;;2.60;1.07;;;16.00;99.90;;;;;;5032621;28;20029;-78
2023/08/17 03:02:22;;;;;;;0.03;0.03;;;16.00;99.90;;;;;;5033688;28;20026;-66
2023/08/17 03:04:47;;;;;;;0.10;0.10;;;16.00;99.90;;;;;;5029809;28;20053;-65
2023/08/17 03:07:13;;;;;;;1.87;1.17;;;16.00;99.90;;;;;;5027601;28;20088;-65
2023/08/17 03:09:39;;;;;;;0.10;0.10;;;16.00;99.90;;;;;;5037670;28;20024;-78
2023/08/17 03:12:05;;;;;;;0.10;0.10;;;16.00;99.90;;;;;;5033234;28;20078;-66
2023/08/17 03:14:30;;;;;;;0.37;0.37;;;16.00;99.90;;;;;;5033241;28;20325;-66
2023/08/17 03:16:56;;;;;;;0.83;0.83;;;16.00;99.90;;;;;;5039639;28;20108;-66
2023/08/17 03:19:22;;;;;;;1.50;1.00;;;15.90;99.90;;;;;;5037119;28;20025;-65
2023/08/17 03:21:47;;;;;;;0.33;0.33;;;15.90;99.90;;;;;;5029572;28;20316;-66
2023/08/17 03:24:13;;;;;;;0.00;0.00;;;15.90;99.90;;;;;;5033546;28;20079;-65
2023/08/17 03:26:39;;;;;;;0.53;0.53;;;15.90;99.90;;;;;;5030956;28;20116;-79
2023/08/17 03:29:04;;;;;;;0.30;0.30;;;15.90;99.90;;;;;;5050479;28;20044;-65
2023/08/17 03:31:30;;;;;;;0.33;0.23;;;15.90;99.90;;;;;;5022818;28;20026;-66
2023/08/17 03:33:56;;;;;;;0.80;0.63;;;15.90;99.90;;;;;;5035715;28;20034;-66
2023/08/17 03:36:22;;;;;;;0.27;0.20;;;15.90;99.90;;;;;;5029120;28;20464;-68
2023/08/17 03:38:47;;;;;;;0.30;0.30;;;15.90;99.90;;;;;;5024542;28;20421;-65
2023/08/17 03:41:13;;;;;;;0.40;0.33;;;16.00;99.90;;;;;;5030085;28;20065;-66
2023/08/17 03:43:39;;;;;;;1.10;0.60;;;16.00;99.90;;;;;;5035282;28;20026;-66
2023/08/17 03:46:05;;;;;;;0.63;0.27;;;16.00;99.90;;;;;;5023920;28;20084;-66
2023/08/17 03:48:31;;;;;;;0.30;0.30;;;16.00;99.90;;;;;;5034931;28;20513;-65
2023/08/17 03:50:56;;;;;;;0.30;0.30;;;16.00;99.90;;;;;;5033494;28;20069;-65
2023/08/17 03:53:22;;;;;;;0.47;0.37;;;16.10;99.90;;;;;;5034669;28;20038;-68
2023/08/17 03:55:49;;;;;;;1.33;1.23;;;16.00;99.90;;;;;;5032815;28;20026;-65
2023/08/17 03:58:15;;;;;;;;;;;16.00;99.90;;;;;;5035088;28;20029;-65
2023/08/17 04:00:41;;;;;;;1.45;1.25;;;16.00;99.90;;;;;;5034328;28;19913;-65
2023/08/17 04:03:07;;;;;;;0.47;0.47;;;16.10;99.90;;;;;;5033324;28;20056;-65
2023/08/17 04:05:32;;;;;;;0.00;0.00;;;16.10;99.90;;;;;;5033656;28;20305;-65
2023/08/17 04:08:03;;;;;;;0.00;0.00;;;16.10;99.90;;;;;;5033202;28;20025;-65
2023/08/17 04:10:29;;;;;;;0.30;0.30;;;16.10;99.90;;;;;;5029406;28;20364;-79
2023/08/17 04:12:56;;;;;;;1.55;0.45;;;16.10;99.90;;;;;;5034897;28;20113;-66
2023/08/17 04:15:22;;;;;;;0.10;0.10;;;16.10;99.90;;;;;;5022677;28;20026;-65
2023/08/17 04:17:48;;;;;;;0.73;0.53;;;16.10;99.90;;;;;;5023926;28;20028;-65
2023/08/17 04:20:14;;;;;;;0.20;0.20;;;16.10;99.90;;;;;;5036327;28;20403;-65
2023/08/17 04:22:39;;;;;;;0.10;0.10;;;16.10;99.90;;;;;;5028860;28;20080;-65
2023/08/17 04:25:05;;;;;;;0.10;0.10;;;16.20;99.90;;;;;;5016268;28;20034;-66
2023/08/17 04:27:31;;;;;;;0.88;0.55;;;16.20;99.90;;;;;;5027959;28;20030;-67
2023/08/17 04:29:57;;;;;;;0.30;0.30;;;16.20;99.90;;;;;;5029406;28;20034;-66
2023/08/17 04:32:23;;;;;;;0.13;0.13;;;16.20;99.90;;;;;;5049757;28;20029;-65
2023/08/17 04:34:48;;;;;;;0.13;0.13;;;16.20;99.90;;;;;;5019824;28;20298;-66
2023/08/17 04:37:15;;;;;;;0.00;0.00;;;16.20;99.90;;;;;;5023398;28;20026;-66
2023/08/17 04:39:41;;;;;;;0.00;0.00;;;16.20;99.90;;;;;;5033554;28;20020;-66
2023/08/17 04:42:07;;;;;;;0.03;0.03;;;16.20;99.90;;;;;;5023653;28;20460;-65
2023/08/17 04:44:33;;;;;;;0.30;0.30;;;16.20;99.90;;;;;;5032806;28;20037;-66
2023/08/17 04:46:59;;;;;;;0.00;0.00;;;16.20;99.90;;;;;;5021992;28;20025;-65
2023/08/17 04:49:26;;;;;;;0.68;0.28;;;16.20;99.90;;;;;;5032722;28;20026;-66
2023/08/17 04:51:51;;;;;;;;;;;16.30;99.90;;;;;;5037968;28;20032;-65
2023/08/17 04:54:17;;;;;;;0.43;0.43;;;16.30;99.90;;;;;;5033798;28;19913;-79
2023/08/17 04:56:43;;;;;;;0.43;0.20;;;16.30;99.90;;;;;;5032376;28;20036;-66
2023/08/17 04:59:09;;;;;;;0.00;0.00;;;16.30;99.90;;;;;;5032880;28;20132;-66
2023/08/17 05:01:35;;;;;;;0.00;0.00;;;16.30;99.90;;;;;;5029124;28;20017;-65
2023/08/17 05:04:01;;;;;;;0.80;0.65;;;16.30;99.90;;;;;;5029000;28;20030;-65
2023/08/17 05:06:30;;;;;;;0.17;0.17;;;16.30;99.90;;;;;;5027143;28;20033;-66
2023/08/17 05:08:56;;;;;;;0.00;0.00;;;16.30;99.90;;;;;;5031789;28;20037;-66
2023/08/17 05:11:22;;;;;;;0.25;0.25;;;16.30;99.90;;;;;;5029498;28;20037;-69
2023/08/17 05:13:47;;;;;;;0.10;0.10;;;16.30;99.90;;;;;;5036979;28;20029;-66
2023/08/17 05:16:13;;;;;;;0.10;0.10;;;16.30;99.90;;;;;;5022709;28;20033;-65
2023/08/17 05:18:39;;;;;;;2.70;1.40;;;16.40;99.90;;;;;;5032029;28;20420;-65
2023/08/17 05:21:05;;;;;;;1.13;0.53;;;16.40;99.90;;;;;;5032974;28;20030;-66
2023/08/17 05:23:30;;;;;;;11.47;0.83;;;16.40;99.90;;;;;;5033574;28;20053;-65
2023/08/17 05:25:56;;;;;;;0.40;0.40;;;16.40;99.90;;;;;;5033318;28;20025;-67
2023/08/17 05:28:22;;;;;;;0.20;0.20;;;16.50;99.90;;;;;;5031239;28;20033;-66
2023/08/17 05:30:49;;;;;;;0.27;0.27;;;16.50;99.90;;;;;;5033043;28;20056;-65
2023/08/17 05:33:15;;;;;;;0.22;0.22;;;16.50;99.90;;;;;;5032986;28;20040;-65
2023/08/17 05:35:42;;;;;;;0.73;0.40;;;16.50;99.90;;;;;;5029201;28;20030;-78
2023/08/17 05:38:08;;;;;;;0.10;0.10;;;16.50;99.90;;;;;;5032516;28;20109;-66
2023/08/17 05:40:34;;;;;;;0.20;0.20;;;16.50;99.90;;;;;;5028471;28;20428;-65
2023/08/17 05:42:59;;;;;;;0.10;0.10;;;16.60;99.90;;;;;;5021293;28;20053;-65
2023/08/17 05:45:25;;;;;;;0.30;0.30;;;16.60;99.90;;;;;;5031622;28;20034;-78
2023/08/17 05:47:52;;;;;;;0.40;0.40;;;16.60;99.90;;;;;;5030950;28;20302;-66
2023/08/17 05:50:18;;;;;;;;;;;16.60;99.90;;;;;;5025961;28;20033;-66
2023/08/17 05:52:43;;;;;;;0.10;0.10;;;16.60;99.90;;;;;;5032938;28;19909;-65
2023/08/17 05:55:09;;;;;;;0.97;0.67;;;16.70;99.90;;;;;;5037541;28;20483;-86
2023/08/17 05:57:35;;;;;;;0.00;0.00;;;16.70;99.90;;;;;;5034773;28;20021;-66
2023/08/17 06:00:00;;;;;;;2.40;1.17;;;16.70;99.90;;;;;;5024633;28;20030;-66
2023/08/17 06:02:26;;;;;;;0.10;0.10;;;16.70;99.90;;;;;;5026589;28;20405;-66
2023/08/17 06:04:52;;;;;;;0.40;0.40;;;16.70;99.90;;;;;;5029083;28;20068;-66
2023/08/17 06:07:17;;;;;;;0.10;0.10;;;16.80;99.90;;;;;;5035065;28;20037;-66
2023/08/17 06:09:43;;;;;;;0.13;0.13;;;16.80;99.90;;;;;;5027883;28;20083;-66
2023/08/17 06:12:09;;;;;;;0.93;0.80;;;16.80;99.90;;;;;;5047273;28;20075;-66
2023/08/17 06:14:35;;;;;;;0.03;0.03;;;16.80;99.90;;;;;;5023095;28;20028;-66
2023/08/17 06:17:00;;;;;;;0.40;0.40;;;16.90;99.90;;;;;;5029324;28;20128;-65
2023/08/17 06:19:26;;;;;;;0.60;0.60;;;16.90;99.90;;;;;;5028346;28;20379;-65
2023/08/17 06:21:52;;;;;;;0.00;0.00;;;16.90;99.90;;;;;;5023046;28;20109;-68
2023/08/17 06:24:18;;;;;;;0.43;0.40;;;17.00;99.90;;;;;;5025274;28;20412;-66
2023/08/17 06:26:45;;;;;;;1.40;0.60;;;17.00;99.90;;;;;;5033739;28;20360;-66
2023/08/17 06:29:11;;;;;;;0.20;0.20;;;17.10;99.90;;;;;;5029814;28;20476;-68
2023/08/17 06:31:37;;;;;;;0.10;0.10;;;17.10;99.90;;;;;;5021552;28;20034;-77
2023/08/17 06:34:03;;;;;;;0.63;0.63;;;17.10;99.90;;;;;;5025547;28;20118;-68
2023/08/17 06:36:32;;;;;;;0.03;0.03;;;17.10;99.90;;;;;;5030604;28;20306;-66
2023/08/17 06:38:58;;;;;;;0.28;0.20;;;17.20;99.90;;;;;;5028634;28;20038;-66
2023/08/17 06:41:24;;;;;;;0.75;0.65;;;17.20;99.90;;;;;;5031517;28;20037;-66
2023/08/17 06:43:50;;;;;;;0.10;0.10;;;17.20;99.90;;;;;;5029978;28;20049;-66
2023/08/17 06:46:16;;;;;;;0.38;0.38;;;17.30;99.90;;;;;;5020251;28;20361;-66
2023/08/17 06:48:43;;;;;;;0.10;0.10;;;17.30;99.90;;;;;;5036873;28;20045;-66
2023/08/17 06:51:09;;;;;;;;;;;17.40;99.90;;;;;;5022121;28;20108;-66
2023/08/17 06:53:34;;;;;;;0.00;0.00;;;17.40;99.90;;;;;;5029288;28;20019;-66
2023/08/17 06:56:00;;;;;;;0.43;0.43;;;17.40;99.90;;;;;;5020314;28;20099;-66
2023/08/17 06:58:26;;;;;;;0.00;0.00;;;17.40;99.90;;;;;;5031683;28;20037;-66
2023/08/17 07:00:52;;;;;;;0.20;0.20;;;17.50;99.90;;;;;;5021504;28;20033;-66
2023/08/17 07:03:18;;;;;;;0.50;0.40;;;17.40;99.90;;;;;;5032869;28;20032;-66
2023/08/17 07:05:44;;;;;;;0.10;0.10;;;17.40;99.90;;;;;;5029847;28;20308;-65
2023/08/17 07:08:09;;;;;;;1.35;0.57;;;17.50;99.90;;;;;;5028242;28;20033;-65
2023/08/17 07:10:35;;;;;;;0.03;0.03;;;17.50;99.90;;;;;;5028285;28;20045;-66
2023/08/17 07:13:03;;;;;;;0.00;0.00;;;17.50;99.90;;;;;;5026912;28;20504;-66
2023/08/17 07:15:30;;;;;;;0.20;0.20;;;17.60;99.90;;;;;;5019763;28;20025;-66
2023/08/17 07:17:55;;;;;;;;;;;17.60;99.90;;;;;;5033426;28;20024;-66
2023/08/17 07:20:21;;;;;;;0.30;0.20;;;17.60;99.90;;;;;;5030749;28;19919;-65
2023/08/17 07:22:47;;;;;;;0.00;0.00;;;17.70;99.90;;;;;;5036435;28;20277;-66
2023/08/17 07:25:13;;;;;;;0.43;0.43;;;17.70;99.90;;;;;;5046572;28;20036;-66
2023/08/17 07:27:39;;;;;;;0.60;0.37;;;17.70;99.90;;;;;;5043665;28;20036;-76
2023/08/17 07:30:05;;;;;;;0.47;0.30;;;17.80;99.90;;;;;;5043522;28;20672;-66
2023/08/17 07:32:32;;;;;;;0.40;0.40;;;17.80;99.90;;;;;;5043967;28;20112;-78
2023/08/17 07:34:57;;;;;;;0.15;0.15;;;18.00;99.90;;;;;;5041856;28;20025;-67
2023/08/17 07:37:23;;;;;;;0.20;0.17;;;18.20;99.90;;;;;;5034707;28;20031;-79
2023/08/17 07:39:49;;;;;;;1.17;1.03;;;18.40;99.90;;;;;;5028455;28;20029;-66
2023/08/17 07:42:15;;;;;;;0.10;0.10;;;18.40;99.90;;;;;;5026548;28;20053;-67
2023/08/17 07:44:41;;;;;;;0.38;0.22;;;18.50;99.90;;;;;;5025736;28;20021;-77
2023/08/17 07:47:07;;;;;;;;;;;18.50;99.90;;;;;;5050728;28;20135;-66
2023/08/17 07:49:33;;;;;;;0.00;0.00;;;18.60;99.90;;;;;;5043736;28;20295;-67
2023/08/17 07:51:59;;;;;;;0.00;0.00;;;18.60;99.90;;;;;;5043844;28;20095;-67
2023/08/17 07:54:24;;;;;;;1.73;0.40;;;18.60;99.90;;;;;;5026315;28;20044;-66
2023/08/17 07:56:50;;;;;;;0.43;0.43;;;18.70;99.90;;;;;;5035258;28;20037;-66
2023/08/17 07:59:16;;;;;;;0.10;0.10;;;18.70;99.90;;;;;;5039766;28;20289;-67
2023/08/17 08:01:42;;;;;;;0.10;0.10;;;18.80;99.90;;;;;;5026981;28;20252;-66
2023/08/17 08:04:07;;;;;;;0.40;0.40;;;18.70;99.90;;;;;;5035796;28;20029;-66
2023/08/17 08:06:33;;;;;;;0.00;0.00;;;18.60;99.90;;;;;;5030215;28;20045;-67
2023/08/17 08:08:59;;;;;;;0.00;0.00;;;18.60;99.90;;;;;;5027381;28;20075;-66
2023/08/17 08:11:27;;;;;;;0.00;0.00;;;18.50;99.90;;;;;;5020513;28;20052;-66
2023/08/17 08:13:53;;;;;;;0.40;0.10;;;18.40;99.90;;;;;;5043774;28;20025;-66
2023/08/17 08:16:18;;;;;;;0.33;0.23;;;18.30;99.90;;;;;;5026820;28;20068;-67
2023/08/17 08:18:44;;;;;;;0.20;0.20;;;18.30;99.90;;;;;;5030573;28;20021;-67
2023/08/17 08:21:10;;;;;;;1.77;0.90;;;18.20;99.90;;;;;;5041883;28;20332;-66
2023/08/17 08:23:35;;;;;;;0.10;0.10;;;18.30;99.90;;;;;;5032729;28;20100;-66
2023/08/17 08:26:01;;;;;;;0.00;0.00;;;18.50;99.90;;;;;;5043007;28;20087;-66
2023/08/17 08:28:27;;;;;;;0.10;0.10;;;18.60;99.90;;;;;;5042911;28;20025;-67
2023/08/17 08:30:53;;;;;;;0.10;0.10;;;18.80;99.90;;;;;;5039463;28;20349;-66
2023/08/17 08:33:18;;;;;;;0.10;0.10;;;18.90;99.90;;;;;;5025779;28;20036;-66
2023/08/17 08:35:45;;;;;;;0.10;0.10;;;19.00;99.90;;;;;;5033569;28;20440;-67
2023/08/17 08:38:11;;;;;;;0.00;0.00;;;19.10;99.90;;;;;;5036330;28;20087;-66
2023/08/17 08:40:40;;;;;;;0.40;0.40;;;19.20;99.90;;;;;;5024622;28;20449;-66
2023/08/17 08:43:09;;;;;;;0.22;0.22;;;19.10;99.90;;;;;;5020735;28;20083;-66
2023/08/17 08:45:37;;;;;;;0.30;0.30;;;19.10;99.90;;;;;;5033111;28;20038;-67
2023/08/17 08:48:04;;;;;;;0.00;0.00;;;19.20;99.90;;;;;;5029795;28;20026;-66
2023/08/17 08:50:32;;;;;;;0.40;0.30;;;19.10;99.90;;;;;;5029052;28;20018;-68
2023/08/17 08:53:02;;;;;;;0.05;0.05;;;19.20;99.90;;;;;;5034686;28;20082;-77
2023/08/17 08:55:33;;;;;;;0.75;0.75;;;19.30;99.90;;;;;;5033923;28;20044;-66
2023/08/17 08:58:00;;;;;;;0.10;0.10;;;19.40;99.90;;;;;;5031348;28;20304;-84
2023/08/17 09:00:26;;;;;;;0.70;0.63;;;19.60;99.90;;;;;;5046015;28;20297;-69
2023/08/17 09:02:53;;;;;;;0.05;0.05;;;19.70;99.90;;;;;;5031094;28;20101;-69
2023/08/17 09:05:19;;;;;;;;;;;19.70;99.90;;;;;;5038547;28;20020;-80
2023/08/17 09:07:49;;;;;;;0.22;0.20;;;19.80;99.90;;;;;;5029821;28;19913;-67
2023/08/17 09:10:16;;;;;;;0.43;0.40;;;19.90;99.90;;;;;;5027411;28;20041;-67
2023/08/17 09:12:44;;;;;;;5.63;2.53;;;19.90;99.90;;;;;;5040351;28;20040;-75
2023/08/17 09:15:09;;;;;;;0.00;0.00;;;20.00;99.90;;;;;;5034641;28;20032;-80
2023/08/17 09:17:35;;;;;;;0.10;0.10;;;19.90;99.90;;;;;;5037440;28;20033;-66
2023/08/17 09:20:01;;;;;;;4.47;1.52;;;19.80;99.90;;;;;;5034516;28;20041;-77
2023/08/17 09:22:54;;;;;;;0.20;0.20;;;19.90;99.90;;;;;;5037753;28;20034;-80
2023/08/17 09:25:23;;;;;;;0.32;0.32;;;20.00;99.90;;;;;;5035638;28;20065;-67
2023/08/17 09:27:49;;;;;;;0.90;0.55;;;20.10;99.90;;;;;;5048578;28;20018;-67
2023/08/17 09:30:14;;;;;;;0.30;0.30;;;20.10;99.90;;;;;;5028736;28;20129;-77
2023/08/17 09:32:41;;;;;;;0.10;0.10;;;20.20;99.90;;;;;;5053003;28;20347;-66
2023/08/17 09:35:07;;;;;;;0.10;0.10;;;20.10;99.90;;;;;;5037072;28;20026;-68
2023/08/17 09:37:34;;;;;;;2.95;1.08;;;20.20;99.90;;;;;;5036893;28;20042;-67
2023/08/17 09:40:00;;;;;;;0.38;0.32;;;20.10;99.90;;;;;;5036865;28;20664;-67
2023/08/17 09:42:27;;;;;;;0.20;0.20;;;20.20;99.90;;;;;;5024537;28;20053;-68
2023/08/17 09:44:52;;;;;;;;;;;20.30;99.90;;;;;;5035632;28;20033;-70
2023/08/17 09:47:21;;;;;;;0.05;0.05;;;20.50;99.90;;;;;;5037254;28;19905;-68
2023/08/17 09:49:54;;;;;;;0.63;0.40;;;20.50;99.90;;;;;;5027590;28;20428;-68
2023/08/17 09:52:26;;;;;;;0.40;0.40;;;20.50;99.90;;;;;;5038132;28;20025;-80
2023/08/17 09:54:54;;;;;;;0.17;0.17;;;20.60;99.90;;;;;;5036194;28;20029;-67
2023/08/17 09:57:20;;;;;;;1.08;0.75;;;20.70;99.90;;;;;;5037360;28;20454;-67
2023/08/17 09:59:46;;;;;;;0.00;0.00;;;20.80;99.90;;;;;;5035877;28;20156;-68
2023/08/17 10:02:21;;;;;;;0.03;0.03;;;20.90;99.90;;;;;;5037776;28;20305;-68
2023/08/17 10:04:52;;;;;;;0.30;0.30;;;20.90;99.90;;;;;;5035778;28;20443;-68
2023/08/17 10:07:26;;;;;;;0.30;0.30;;;20.90;99.90;;;;;;5032126;28;20381;-69
2023/08/17 10:10:04;;;;;;;0.00;0.00;;;21.00;99.90;;;;;;5034243;28;20375;-68
2023/08/17 10:12:36;;;;;;;0.00;0.00;;;21.00;99.90;;;;;;5037197;28;20037;-68
2023/08/17 10:15:07;;;;;;;0.17;0.17;;;21.00;99.90;;;;;;5050757;28;20030;-67
2023/08/17 10:17:44;;;;;;;0.30;0.30;;;21.10;99.90;;;;;;5035430;28;20021;-75
2023/08/17 10:20:10;;;;;;;0.00;0.00;;;21.10;99.90;;;;;;5033787;28;20378;-68
2023/08/17 10:22:51;;;;;;;0.28;0.28;;;21.20;99.90;;;;;;5036237;28;20321;-68
2023/08/17 10:25:18;;;;;;;0.00;0.00;;;21.10;99.90;;;;;;5024967;28;20414;-79
2023/08/17 10:27:44;;;;;;;2.10;1.10;;;21.20;99.90;;;;;;5025207;28;20033;-69
2023/08/17 10:30:11;;;;;;;0.08;0.08;;;21.30;99.90;;;;;;5043320;28;20029;-77
2023/08/17 10:32:37;;;;;;;0.30;0.30;;;21.30;99.90;;;;;;5031457;28;20038;-68
2023/08/17 10:35:04;;;;;;;;;;;21.40;99.90;;;;;;5027281;28;20064;-68
2023/08/17 10:37:31;;;;;;;0.05;0.05;;;21.40;99.90;;;;;;5035987;28;19913;-68
2023/08/17 10:39:57;;;;;;;2.55;1.35;;;21.50;99.90;;;;;;5020915;28;20060;-68
2023/08/17 10:42:36;;;;;;;2.17;0.88;;;21.60;99.90;;;;;;5028228;28;20120;-70
2023/08/17 10:45:25;;;;;;;0.22;0.20;;;21.60;99.90;;;;;;5032978;28;20030;-79
2023/08/17 10:48:20;;;;;;;0.00;0.00;;;21.60;99.90;;;;;;5021880;28;20041;-68
2023/08/17 10:51:03;;;;;;;0.15;0.15;;;21.60;99.90;;;;;;5023388;28;20038;-68
2023/08/17 10:53:38;;;;;;;0.63;0.47;;;21.50;99.90;;;;;;5036297;28;20488;-68
2023/08/17 10:56:08;;;;;;;0.70;0.65;;;21.60;99.90;;;;;;5038446;28;20038;-68
2023/08/17 10:58:34;;;;;;;0.32;0.32;;;21.40;99.90;;;;;;5035819;28;20028;-67
2023/08/17 11:00:59;;;;;;;0.00;0.00;;;21.30;99.90;;;;;;5035294;28;20022;-69
2023/08/17 11:03:26;;;;;;;0.30;0.30;;;21.30;99.90;;;;;;5033897;28;20100;-70
2023/08/17 11:05:56;;;;;;;0.63;0.63;;;21.30;99.90;;;;;;5035008;28;20082;-75
2023/08/17 11:08:33;;;;;;;0.00;0.00;;;21.40;99.90;;;;;;5024070;28;20430;-67
2023/08/17 11:11:04;;;;;;;0.00;0.00;;;21.40;99.90;;;;;;5034390;28;20152;-68
2023/08/17 11:13:35;;;;;;;3.03;0.88;;;21.40;99.90;;;;;;5030788;28;20419;-68
2023/08/17 11:16:02;;;;;;;0.15;0.15;;;21.50;99.90;;;;;;5038295;28;20436;-68
2023/08/17 11:18:28;;;;;;;0.57;0.55;;;21.50;99.90;;;;;;5035348;28;20113;-68
2023/08/17 11:20:54;;;;;;;6.43;0.88;;;21.40;99.90;;;;;;5030753;28;20108;-68
2023/08/17 11:23:22;;;;;;;0.47;0.43;;;21.30;99.90;;;;;;5033619;28;20041;-68
2023/08/17 11:25:48;;;;;;;0.22;0.20;;;21.20;99.90;;;;;;5027230;28;20408;-69
2023/08/17 11:28:14;;;;;;;0.10;0.10;;;21.20;99.90;;;;;;5030716;28;20037;-69
2023/08/17 11:30:41;;;;;;;0.00;0.00;;;21.20;99.90;;;;;;5033918;28;20037;-78
2023/08/17 11:33:08;;;;;;;0.55;0.55;;;21.20;99.90;;;;;;5025029;28;20040;-68
2023/08/17 11:35:34;;;;;;;0.20;0.20;;;21.30;99.90;;;;;;5028574;28;20025;-68
2023/08/17 11:38:00;;;;;;;0.88;0.40;;;21.30;99.90;;;;;;5023443;28;20029;-69
2023/08/17 11:40:27;;;;;;;1.77;0.70;;;21.20;99.90;;;;;;5033008;28;20028;-68
2023/08/17 11:42:53;;;;;;;0.35;0.35;;;21.20;99.90;;;;;;5038450;28;20052;-69
2023/08/17 11:45:19;;;;;;;0.85;0.55;;;21.30;99.90;;;;;;5027604;28;20017;-77
2023/08/17 11:47:47;;;;;;;0.82;0.63;;;21.30;99.90;;;;;;5027744;28;20044;-78
2023/08/17 11:50:14;;;;;;;7.22;1.48;;;21.20;99.90;;;;;;5039965;28;20025;-68
2023/08/17 11:52:40;;;;;;;;;;;21.10;99.90;;;;;;5038014;28;20026;-69
2023/08/17 11:55:08;;;;;;;1.00;1.00;;;21.10;99.90;;;;;;5042988;28;19915;-69
2023/08/17 11:57:34;;;;;;;0.10;0.10;;;21.10;99.90;;;;;;5032008;28;20474;-68
2023/08/17 12:00:00;;;;;;;1.80;0.98;;;21.00;99.90;;;;;;5029309;28;20064;-68
2023/08/17 12:02:27;;;;;;;0.20;0.20;;;21.00;99.90;;;;;;5043359;28;20030;-69
2023/08/17 12:04:55;;;;;;;0.08;0.08;;;20.90;99.90;;;;;;5035852;28;20024;-68
2023/08/17 12:07:25;;;;;;;0.50;0.50;;;21.10;99.90;;;;;;5038956;28;20075;-68
2023/08/17 12:09:52;;;;;;;0.10;0.10;;;21.30;99.90;;;;;;5024527;28;20038;-78
2023/08/17 12:12:24;;;;;;;1.90;0.20;;;21.50;99.90;;;;;;5042258;28;20305;-74
2023/08/17 12:14:49;;;;;;;0.63;0.30;;;21.60;99.90;;;;;;5042936;28;20021;-68
2023/08/17 12:17:19;;;;;;;0.20;0.20;;;21.60;99.90;;;;;;5033331;28;20098;-76
2023/08/17 12:19:50;;;;;;;0.10;0.10;;;21.70;99.90;;;;;;5025480;28;20061;-68
2023/08/17 12:22:17;;;;;;;0.00;0.00;;;21.70;99.90;;;;;;5033467;28;20053;-77
2023/08/17 12:24:43;;;;;;;0.20;0.15;;;21.80;99.90;;;;;;5034333;28;20029;-68
2023/08/17 12:27:10;;;;;;;0.20;0.20;;;21.80;99.90;;;;;;5022208;28;20099;-67
2023/08/17 12:29:51;;;;;;;0.10;0.10;;;21.60;99.90;;;;;;5027827;28;20037;-68
2023/08/17 12:32:19;;;;;;;0.52;0.52;;;21.40;99.90;;;;;;5034512;28;20030;-67
2023/08/17 12:34:45;;;;;;;0.00;0.00;;;21.30;99.90;;;;;;5031204;28;20025;-68
2023/08/17 12:37:11;;;;;;;1.45;1.00;;;21.20;99.90;;;;;;5028907;28;20033;-68
2023/08/17 12:39:37;;;;;;;1.67;0.55;;;21.20;99.90;;;;;;5030748;28;20040;-68
2023/08/17 12:42:07;;;;;;;1.17;0.65;;;21.30;99.90;;;;;;5030901;28;20018;-69
2023/08/17 12:44:32;;;;;;;0.38;0.38;;;21.20;99.90;;;;;;5030279;28;20036;-68
2023/08/17 12:46:58;;;;;;;0.40;0.40;;;21.40;99.90;;;;;;5021355;28;20348;-68
2023/08/17 12:49:24;;;;;;;0.43;0.43;;;21.30;99.90;;;;;;5034910;28;20408;-68